Terminal Aerodrome Forecast
Issued by NWS

Home | Current Version | Previous Version | Text Only | Print | Product List | Glossary On
Versions: 1 2 3 4 5 6 7 8 9 10 11 12 13 14 15 16 17 18 19 20 21 22 23 24
000
FTUS43 KLSX 221500 AAA
TAFUIN
TAF AMD
KUIN 221519Z 2215/2312 21010KT P6SM VCTS SCT040CB BKN100
     FM221700 21010KT P6SM SCT100 BKN250
     FM230000 25006KT P6SM VCTS BKN050CB
     FM230400 35007KT P6SM SCT050 BKN250=

USA.gov is the U.S. government's official web portal to all federal, state and local government web resources and services.